Time;durP1;ratioP1;P1;durP2;ratioP2;P2;SDS_P1;SDS_P2;PMS_P1;PMS_P2;Temp;Humidity;BMP_temperature;BMP_pressure;BME280_temperature;BME280_humidity;BME280_pressure;Samples;Min_cycle;Max_cycle;Signal;HPM_P1;HPM_P2
2024/03/23 00:02:08;;;;;;;39.15;25.60;;;;;;;-145.63;100.00;61273.97;5126149;27;20034;-64
2024/03/23 00:04:35;;;;;;;37.47;24.60;;;;;;;-145.63;100.00;61273.97;5116261;28;20405;-64
2024/03/23 00:07:02;;;;;;;39.78;26.08;;;;;;;-145.63;100.00;61273.97;5133504;27;20130;-63
2024/03/23 00:09:28;;;;;;;38.55;25.38;;;;;;;-145.63;100.00;61273.97;5133272;27;20051;-62
2024/03/23 00:11:55;;;;;;;37.22;26.05;;;;;;;-145.63;100.00;61273.97;5133903;27;20053;-63
2024/03/23 00:14:22;;;;;;;39.13;24.83;;;;;;;-145.63;100.00;61273.97;5130759;27;20032;-63
2024/03/23 00:16:48;;;;;;;40.08;26.63;;;;;;;-145.63;100.00;61273.97;5118125;27;20035;-64
2024/03/23 00:19:15;;;;;;;41.30;25.50;;;;;;;-145.63;100.00;61273.97;5135943;27;20476;-64
2024/03/23 00:21:41;;;;;;;39.38;25.83;;;;;;;-145.63;100.00;61273.97;5136309;27;20023;-65
2024/03/23 00:24:08;;;;;;;38.50;25.42;;;;;;;-145.63;100.00;61273.97;5123481;27;20046;-63
2024/03/23 00:26:35;;;;;;;41.67;25.70;;;;;;;-145.63;100.00;61273.97;5127277;27;20501;-64
2024/03/23 00:29:03;;;;;;;38.70;25.48;;;;;;;-145.63;100.00;61273.97;5121713;27;20031;-63
2024/03/23 00:31:29;;;;;;;38.22;26.58;;;;;;;-145.63;100.00;61273.97;5134141;27;20209;-64
2024/03/23 00:33:56;;;;;;;39.88;25.52;;;;;;;-145.63;100.00;61273.97;5117067;27;20337;-64
2024/03/23 00:36:23;;;;;;;38.28;25.45;;;;;;;-145.63;100.00;61273.97;5129395;27;20098;-64
2024/03/23 00:38:49;;;;;;;38.13;25.50;;;;;;;-145.63;100.00;61273.97;5126772;27;20104;-62
2024/03/23 00:41:16;;;;;;;46.28;26.45;;;;;;;-145.63;100.00;61273.97;5115139;28;20058;-63
2024/03/23 00:43:42;;;;;;;37.63;25.15;;;;;;;-145.63;100.00;61273.97;5115366;28;20024;-65
2024/03/23 00:46:09;;;;;;;38.60;25.08;;;;;;;-145.63;100.00;61273.97;5120246;27;20091;-63
2024/03/23 00:48:36;;;;;;;42.30;26.92;;;;;;;-145.63;100.00;61273.97;5119718;27;20055;-62
2024/03/23 00:51:02;;;;;;;38.65;24.38;;;;;;;-145.63;100.00;61273.97;5120516;27;20035;-64
2024/03/23 00:53:28;;;;;;;37.95;26.30;;;;;;;-145.63;100.00;61273.97;5121111;27;20031;-63
2024/03/23 00:55:54;;;;;;;41.25;26.40;;;;;;;-145.63;100.00;61273.97;5135497;27;20106;-63
2024/03/23 00:58:20;;;;;;;41.00;25.67;;;;;;;-145.63;100.00;61273.97;5134694;27;20121;-63
2024/03/23 01:00:45;;;;;;;41.20;25.33;;;;;;;-145.63;100.00;61273.97;5117904;27;20458;-63
2024/03/23 01:03:11;;;;;;;42.28;27.50;;;;;;;-145.63;100.00;61273.97;5134644;27;20027;-63
2024/03/23 01:05:36;;;;;;;41.30;26.60;;;;;;;-145.63;100.00;61273.97;5128430;27;20047;-63
2024/03/23 01:08:02;;;;;;;42.03;26.55;;;;;;;-145.63;100.00;61273.97;5099047;27;20043;-62
2024/03/23 01:10:28;;;;;;;42.55;27.40;;;;;;;-145.63;100.00;61273.97;5135204;27;20451;-63
2024/03/23 01:12:53;;;;;;;43.35;27.17;;;;;;;-145.63;100.00;61273.97;5117105;27;20055;-62
2024/03/23 01:15:19;;;;;;;42.63;27.40;;;;;;;-145.63;100.00;61273.97;5127768;27;20050;-63
2024/03/23 01:17:44;;;;;;;45.47;27.33;;;;;;;-145.63;100.00;61273.97;5126687;27;20027;-63
2024/03/23 01:20:10;;;;;;;40.20;27.23;;;;;;;-145.63;100.00;61273.97;5118555;27;20043;-63
2024/03/23 01:22:36;;;;;;;45.15;27.73;;;;;;;-145.63;100.00;61273.97;5117022;27;20055;-63
2024/03/23 01:25:02;;;;;;;42.83;27.60;;;;;;;-145.63;100.00;61273.97;5116005;27;20349;-62
2024/03/23 01:27:28;;;;;;;44.20;27.40;;;;;;;-145.63;100.00;61273.97;5138044;27;20463;-63
2024/03/23 01:29:54;;;;;;;40.20;26.05;;;;;;;-145.63;100.00;61273.97;5133194;27;20027;-63
2024/03/23 01:32:21;;;;;;;42.00;26.92;;;;;;;-145.63;100.00;61273.97;5135972;27;20077;-63
2024/03/23 01:34:47;;;;;;;43.30;27.27;;;;;;;-145.63;100.00;61273.97;5155424;27;20062;-62
2024/03/23 01:37:12;;;;;;;46.17;29.05;;;;;;;-145.63;100.00;61273.97;5114325;28;20031;-63
2024/03/23 01:39:38;;;;;;;45.67;27.13;;;;;;;-145.63;100.00;61273.97;5130095;27;20019;-64
2024/03/23 01:42:04;;;;;;;43.47;27.65;;;;;;;-145.63;100.00;61273.97;5123964;27;20031;-63
2024/03/23 01:44:29;;;;;;;45.30;28.23;;;;;;;-145.63;100.00;61273.97;5120128;27;20035;-63
2024/03/23 01:46:55;;;;;;;45.35;28.05;;;;;;;-145.63;100.00;61273.97;5134012;27;20087;-63
2024/03/23 01:49:21;;;;;;;46.92;29.15;;;;;;;-145.63;100.00;61273.97;5114171;28;20151;-64
2024/03/23 01:51:47;;;;;;;42.17;27.75;;;;;;;-145.63;100.00;61273.97;5131023;27;20357;-64
2024/03/23 01:54:13;;;;;;;43.70;27.08;;;;;;;-145.63;100.00;61273.97;5134187;27;20094;-65
2024/03/23 01:56:39;;;;;;;47.08;28.50;;;;;;;-145.63;100.00;61273.97;5127328;27;20495;-65
2024/03/23 01:59:05;;;;;;;45.78;29.15;;;;;;;-145.63;100.00;61273.97;5116379;27;20035;-64
2024/03/23 02:01:32;;;;;;;41.95;28.27;;;;;;;-145.63;100.00;61273.97;5128690;27;20039;-64
2024/03/23 02:03:58;;;;;;;47.63;28.98;;;;;;;-145.63;100.00;61273.97;5113914;28;20023;-64
2024/03/23 02:06:25;;;;;;;45.80;29.05;;;;;;;-145.63;100.00;61273.97;5127430;27;20080;-63
2024/03/23 02:08:51;;;;;;;44.97;28.38;;;;;;;-145.63;100.00;61273.97;5134137;27;20043;-63
2024/03/23 02:11:17;;;;;;;45.88;28.85;;;;;;;-145.63;100.00;61273.97;5133603;27;20117;-64
2024/03/23 02:13:42;;;;;;;46.30;28.33;;;;;;;-145.63;100.00;61273.97;5134401;27;20028;-63
2024/03/23 02:16:08;;;;;;;46.25;29.13;;;;;;;-145.63;100.00;61273.97;5134265;27;20363;-63
2024/03/23 02:18:34;;;;;;;46.13;29.40;;;;;;;-145.63;100.00;61273.97;5129970;27;20415;-63
2024/03/23 02:21:00;;;;;;;47.17;28.38;;;;;;;-145.63;100.00;61273.97;5132005;27;20424;-62
2024/03/23 02:23:26;;;;;;;44.90;28.42;;;;;;;-145.63;100.00;61273.97;5109916;28;20048;-63
2024/03/23 02:25:53;;;;;;;47.47;28.00;;;;;;;-145.63;100.00;61273.97;5113589;28;20082;-62
2024/03/23 02:28:19;;;;;;;47.15;28.73;;;;;;;-145.63;100.00;61273.97;5132755;27;20042;-62
2024/03/23 02:30:45;;;;;;;42.58;27.20;;;;;;;-145.63;100.00;61273.97;5124463;27;20042;-62
2024/03/23 02:33:11;;;;;;;46.05;27.85;;;;;;;-145.63;100.00;61273.97;5133617;27;20024;-63
2024/03/23 02:35:37;;;;;;;44.33;28.80;;;;;;;-145.63;100.00;61273.97;5126920;27;20024;-62
2024/03/23 02:38:03;;;;;;;43.80;27.85;;;;;;;-145.63;100.00;61273.97;5113299;28;20031;-64
2024/03/23 02:40:29;;;;;;;41.17;27.75;;;;;;;-145.63;100.00;61273.97;5113062;28;20118;-66
2024/03/23 02:42:55;;;;;;;39.08;26.80;;;;;;;-145.63;100.00;61273.97;5094970;28;20034;-63
2024/03/23 02:45:21;;;;;;;41.42;26.80;;;;;;;-145.63;100.00;61273.97;5125337;27;20102;-64
2024/03/23 02:47:46;;;;;;;42.72;27.58;;;;;;;-145.63;100.00;61273.97;5133511;27;20490;-63
2024/03/23 02:50:14;;;;;;;42.90;28.55;;;;;;;-145.63;100.00;61273.97;5132071;27;20031;-63
2024/03/23 02:52:40;;;;;;;42.88;26.98;;;;;;;-145.63;100.00;61273.97;5133480;27;20038;-63
2024/03/23 02:55:06;;;;;;;42.35;27.83;;;;;;;-145.63;100.00;61273.97;5114777;28;20096;-63
2024/03/23 02:57:32;;;;;;;42.92;27.33;;;;;;;-145.63;100.00;61273.97;5126054;27;20062;-64
2024/03/23 02:59:58;;;;;;;38.50;25.67;;;;;;;-145.63;100.00;61273.97;5122088;27;20396;-64
2024/03/23 03:02:23;;;;;;;41.95;26.98;;;;;;;-145.63;100.00;61273.97;5112680;28;20027;-65
2024/03/23 03:04:49;;;;;;;42.40;27.33;;;;;;;-145.63;100.00;61273.97;5132329;27;20035;-64
2024/03/23 03:07:15;;;;;;;41.42;26.80;;;;;;;-145.63;100.00;61273.97;5130650;27;20088;-62
2024/03/23 03:09:40;;;;;;;38.80;25.02;;;;;;;-145.63;100.00;61273.97;5121298;28;20388;-63
2024/03/23 03:12:07;;;;;;;41.05;26.25;;;;;;;-145.63;100.00;61273.97;5123001;28;20417;-62
2024/03/23 03:14:33;;;;;;;39.55;27.23;;;;;;;-145.63;100.00;61273.97;5127392;28;20059;-63
2024/03/23 03:16:59;;;;;;;40.55;25.77;;;;;;;-145.63;100.00;61273.97;5113635;28;20086;-62
2024/03/23 03:19:25;;;;;;;39.45;25.80;;;;;;;-145.63;100.00;61273.97;5132943;28;20030;-65
2024/03/23 03:21:50;;;;;;;43.38;27.33;;;;;;;-145.63;100.00;61273.97;5117165;28;20034;-65
2024/03/23 03:24:16;;;;;;;40.83;26.30;;;;;;;-145.63;100.00;61273.97;5128140;27;20535;-65
2024/03/23 03:26:43;;;;;;;41.75;26.95;;;;;;;-145.63;100.00;61273.97;5130327;27;20040;-64
2024/03/23 03:29:09;;;;;;;41.22;25.80;;;;;;;-145.63;100.00;61273.97;5107664;27;20027;-65
2024/03/23 03:31:35;;;;;;;43.65;27.42;;;;;;;-145.63;100.00;61273.97;5136578;27;20135;-63
2024/03/23 03:34:00;;;;;;;39.67;25.85;;;;;;;-145.63;100.00;61273.97;5126526;27;20038;-63
2024/03/23 03:36:26;;;;;;;40.92;25.90;;;;;;;-145.63;100.00;61273.97;5124389;27;20027;-64
2024/03/23 03:38:52;;;;;;;39.08;27.00;;;;;;;-145.63;100.00;61273.97;5123625;27;20036;-63
2024/03/23 03:41:18;;;;;;;41.53;26.65;;;;;;;-145.63;100.00;61273.97;5119254;27;20031;-63
2024/03/23 03:43:44;;;;;;;42.30;27.33;;;;;;;-145.63;100.00;61273.97;5137256;27;20096;-64
2024/03/23 03:46:10;;;;;;;38.30;25.88;;;;;;;-145.63;100.00;61273.97;5136273;27;20443;-62
2024/03/23 03:48:37;;;;;;;40.80;27.20;;;;;;;-145.63;100.00;61273.97;5137151;27;20025;-65
2024/03/23 03:51:03;;;;;;;38.60;25.48;;;;;;;-145.63;100.00;61273.97;5134910;27;20034;-65
2024/03/23 03:53:30;;;;;;;39.33;26.52;;;;;;;-145.63;100.00;61273.97;5131887;27;20038;-64
2024/03/23 03:55:56;;;;;;;43.92;26.98;;;;;;;-145.63;100.00;61273.97;5116426;28;20464;-65
2024/03/23 03:58:22;;;;;;;38.60;25.58;;;;;;;-145.63;100.00;61273.97;5136773;27;20031;-64
2024/03/23 04:00:47;;;;;;;43.10;26.00;;;;;;;-145.63;100.00;61273.97;5120914;27;20068;-64
2024/03/23 04:03:13;;;;;;;41.30;26.65;;;;;;;-145.63;100.00;61273.97;5116128;28;20024;-65
2024/03/23 04:05:38;;;;;;;43.28;27.15;;;;;;;-145.63;100.00;61273.97;5122040;27;20387;-63
2024/03/23 04:08:05;;;;;;;40.67;27.05;;;;;;;-145.63;100.00;61273.97;5135553;27;20029;-64
2024/03/23 04:10:31;;;;;;;40.58;25.58;;;;;;;-145.63;100.00;61273.97;5115919;28;20437;-65
2024/03/23 04:12:57;;;;;;;42.30;26.95;;;;;;;-145.63;100.00;61273.97;5133002;27;20499;-64
2024/03/23 04:15:22;;;;;;;38.78;25.65;;;;;;;-145.63;100.00;61273.97;5124319;27;20098;-64
2024/03/23 04:17:48;;;;;;;38.83;26.17;;;;;;;-145.63;100.00;61273.97;5119334;27;20130;-64
2024/03/23 04:20:16;;;;;;;38.65;25.77;;;;;;;-145.63;100.00;61273.97;5117945;27;20457;-65
2024/03/23 04:22:43;;;;;;;42.15;26.45;;;;;;;-145.63;100.00;61273.97;5136050;27;20054;-65
2024/03/23 04:25:10;;;;;;;39.13;23.98;;;;;;;-145.63;100.00;61273.97;5136406;27;20046;-66
2024/03/23 04:27:39;;;;;;;37.17;24.65;;;;;;;-145.63;100.00;61273.97;5135115;27;20027;-64
2024/03/23 04:30:10;;;;;;;38.83;24.70;;;;;;;-145.63;100.00;61273.97;5133187;27;20122;-65
2024/03/23 04:32:36;;;;;;;37.85;24.15;;;;;;;-145.63;100.00;61273.97;5131581;27;20062;-68
2024/03/23 04:35:05;;;;;;;38.17;24.08;;;;;;;-145.63;100.00;61273.97;5122594;27;20086;-65
2024/03/23 04:37:32;;;;;;;35.28;24.23;;;;;;;-145.63;100.00;61273.97;5121407;27;20038;-64
2024/03/23 04:39:59;;;;;;;38.10;24.50;;;;;;;-145.63;100.00;61273.97;5115336;28;20088;-64
2024/03/23 04:42:25;;;;;;;36.67;23.42;;;;;;;-145.63;100.00;61273.97;5115482;28;20036;-65
2024/03/23 04:44:50;;;;;;;33.22;22.38;;;;;;;-145.63;100.00;61273.97;5121609;27;20050;-65
2024/03/23 04:47:16;;;;;;;34.20;22.17;;;;;;;-145.63;100.00;61273.97;5127009;27;20070;-64
2024/03/23 04:49:42;;;;;;;40.20;23.75;;;;;;;-145.63;100.00;61273.97;5135843;27;20030;-65
2024/03/23 04:52:07;;;;;;;36.28;23.58;;;;;;;-145.63;100.00;61273.97;5133467;27;20046;-64
2024/03/23 04:54:33;;;;;;;34.65;23.40;;;;;;;-145.63;100.00;61273.97;5126402;27;20035;-65
2024/03/23 04:56:59;;;;;;;34.45;22.40;;;;;;;-145.63;100.00;61273.97;5127595;27;20040;-64
2024/03/23 04:59:25;;;;;;;37.17;23.40;;;;;;;-145.63;100.00;61273.97;5118381;27;20115;-65
2024/03/23 05:01:50;;;;;;;38.38;24.02;;;;;;;-145.63;100.00;61273.97;5135737;27;20099;-66
2024/03/23 05:04:16;;;;;;;34.38;22.58;;;;;;;-145.63;100.00;61273.97;5135568;27;20091;-65
2024/03/23 05:06:42;;;;;;;36.13;22.70;;;;;;;-145.63;100.00;61273.97;5131044;27;20096;-65
2024/03/23 05:09:11;;;;;;;37.20;22.88;;;;;;;-145.63;100.00;61273.97;5114867;28;20051;-65
2024/03/23 05:11:38;;;;;;;31.77;21.30;;;;;;;-145.63;100.00;61273.97;5119752;27;20031;-65
2024/03/23 05:14:04;;;;;;;33.35;21.95;;;;;;;-145.63;100.00;61273.97;5134738;27;20027;-64
2024/03/23 05:16:29;;;;;;;31.15;22.38;;;;;;;-145.63;100.00;61273.97;5134798;27;20486;-65
2024/03/23 05:18:55;;;;;;;32.97;22.65;;;;;;;-145.63;100.00;61273.97;5105025;27;20669;-63
2024/03/23 05:21:20;;;;;;;33.13;21.80;;;;;;;-145.63;100.00;61273.97;5134796;27;20050;-64
2024/03/23 05:23:47;;;;;;;33.55;21.85;;;;;;;-145.63;100.00;61273.97;5129000;27;20044;-63
2024/03/23 05:26:13;;;;;;;31.40;22.25;;;;;;;-145.63;100.00;61273.97;5118751;27;20027;-64
2024/03/23 05:28:39;;;;;;;31.90;22.52;;;;;;;-145.63;100.00;61273.97;5133912;27;20039;-64
2024/03/23 05:31:04;;;;;;;33.95;22.98;;;;;;;-145.63;100.00;61273.97;5131451;27;20083;-64
2024/03/23 05:33:30;;;;;;;31.25;21.88;;;;;;;-145.63;100.00;61273.97;5126460;27;20031;-64
2024/03/23 05:35:57;;;;;;;31.35;21.75;;;;;;;-145.63;100.00;61273.97;5127367;27;20034;-64
2024/03/23 05:38:23;;;;;;;33.20;23.00;;;;;;;-145.63;100.00;61273.97;5117089;27;20046;-63
2024/03/23 05:40:59;;;;;;;30.65;20.95;;;;;;;-145.63;100.00;61273.97;5135182;27;20035;-64
2024/03/23 05:43:25;;;;;;;32.55;22.02;;;;;;;-145.63;100.00;61273.97;5146027;27;20033;-63
2024/03/23 05:45:58;;;;;;;33.33;22.10;;;;;;;-145.63;100.00;61273.97;5139326;27;20035;-64
2024/03/23 05:48:26;;;;;;;31.15;20.83;;;;;;;-145.63;100.00;61273.97;5122728;27;20368;-64
2024/03/23 05:50:52;;;;;;;31.65;21.48;;;;;;;-145.63;100.00;61273.97;5119564;27;20106;-65
2024/03/23 05:53:22;;;;;;;33.22;21.92;;;;;;;-145.63;100.00;61273.97;5134306;27;20035;-65
2024/03/23 05:55:49;;;;;;;32.47;21.38;;;;;;;-145.63;100.00;61273.97;5132800;27;20045;-65
2024/03/23 05:58:18;;;;;;;31.85;21.58;;;;;;;-145.63;100.00;61273.97;5130488;27;20039;-66
2024/03/23 06:00:44;;;;;;;32.72;22.02;;;;;;;-145.63;100.00;61273.97;5123558;27;20102;-66
2024/03/23 06:03:10;;;;;;;28.55;20.17;;;;;;;-145.63;100.00;61273.97;5131917;27;20031;-68
2024/03/23 06:05:37;;;;;;;31.85;22.42;;;;;;;-145.63;100.00;61273.97;5129769;27;20032;-66
2024/03/23 06:08:03;;;;;;;30.73;21.30;;;;;;;-145.63;100.00;61273.97;5114117;28;21985;-70
2024/03/23 06:10:29;;;;;;;28.35;21.20;;;;;;;-145.63;100.00;61273.97;5134150;27;20385;-68
2024/03/23 06:12:54;;;;;;;33.97;22.50;;;;;;;-145.63;100.00;61273.97;5118990;27;20035;-66
2024/03/23 06:15:20;;;;;;;30.83;21.15;;;;;;;-145.63;100.00;61273.97;5123884;27;20114;-66
2024/03/23 06:17:46;;;;;;;30.92;21.15;;;;;;;-145.63;100.00;61273.97;5133342;27;20042;-67
2024/03/23 06:20:12;;;;;;;31.92;21.77;;;;;;;-145.63;100.00;61273.97;5132756;27;20037;-66
2024/03/23 06:22:38;;;;;;;30.45;20.58;;;;;;;-145.63;100.00;61273.97;5119737;27;20054;-66
2024/03/23 06:25:05;;;;;;;29.70;21.00;;;;;;;-145.63;100.00;61273.97;5130278;27;20110;-66
2024/03/23 06:27:32;;;;;;;31.05;20.15;;;;;;;-145.63;100.00;61273.97;5128291;27;20395;-65
2024/03/23 06:30:00;;;;;;;29.25;20.60;;;;;;;-145.63;100.00;61273.97;5122343;27;20100;-65
2024/03/23 06:32:28;;;;;;;28.40;20.58;;;;;;;-145.63;100.00;61273.97;5099969;28;21867;-64
2024/03/23 06:34:55;;;;;;;30.40;20.33;;;;;;;-145.63;100.00;61273.97;5126829;27;20023;-65
2024/03/23 06:37:20;;;;;;;27.17;20.17;;;;;;;-145.63;100.00;61273.97;5096425;28;20027;-65
2024/03/23 06:39:46;;;;;;;28.23;19.60;;;;;;;-145.63;100.00;61273.97;5122616;27;20038;-64
2024/03/23 06:42:12;;;;;;;29.15;19.80;;;;;;;-145.63;100.00;61273.97;5129599;27;20035;-63
2024/03/23 06:44:39;;;;;;;27.10;19.23;;;;;;;-145.63;100.00;61273.97;5112913;28;20024;-64
2024/03/23 06:47:05;;;;;;;25.38;18.38;;;;;;;-145.63;100.00;61273.97;5125951;27;20066;-66
2024/03/23 06:49:30;;;;;;;27.23;18.80;;;;;;;-145.63;100.00;61273.97;5112224;27;20062;-63
2024/03/23 06:51:56;;;;;;;25.65;18.63;;;;;;;-145.63;100.00;61273.97;5116353;27;20023;-63
2024/03/23 06:54:22;;;;;;;27.60;18.85;;;;;;;-145.63;100.00;61273.97;5112288;28;20031;-64
2024/03/23 06:56:47;;;;;;;29.35;18.92;;;;;;;-145.63;100.00;61273.97;5117621;28;20023;-65
2024/03/23 06:59:13;;;;;;;24.50;17.23;;;;;;;-145.63;100.00;61273.97;5132228;27;20080;-63
2024/03/23 07:01:39;;;;;;;24.65;18.65;;;;;;;-145.63;100.00;61273.97;5119402;27;20047;-65
2024/03/23 07:04:04;;;;;;;27.90;18.48;;;;;;;-145.63;100.00;61273.97;5113108;28;20410;-65
2024/03/23 07:06:31;;;;;;;24.02;16.70;;;;;;;-145.63;100.00;61273.97;5124314;28;20091;-64
2024/03/23 07:08:57;;;;;;;23.40;18.23;;;;;;;-145.63;100.00;61273.97;5126434;28;20064;-65
2024/03/23 07:11:23;;;;;;;22.08;16.63;;;;;;;-145.63;100.00;61273.97;5114302;28;20099;-63
2024/03/23 07:13:54;;;;;;;26.38;17.80;;;;;;;-145.63;100.00;61273.97;5131491;28;20024;-63
2024/03/23 07:16:20;;;;;;;23.95;16.65;;;;;;;-145.63;100.00;61273.97;5124192;28;20069;-65
2024/03/23 07:18:46;;;;;;;24.55;17.63;;;;;;;-145.63;100.00;61273.97;5094230;28;20119;-64
2024/03/23 07:21:11;;;;;;;21.13;15.85;;;;;;;-145.63;100.00;61273.97;5121278;28;20038;-64
2024/03/23 07:23:37;;;;;;;21.77;16.55;;;;;;;-145.63;100.00;61273.97;5128753;28;20051;-65
2024/03/23 07:26:05;;;;;;;21.77;15.38;;;;;;;-145.63;100.00;61273.97;5112561;28;20036;-64
2024/03/23 07:28:32;;;;;;;21.20;16.35;;;;;;;-145.63;100.00;61273.97;5133873;27;20070;-65
2024/03/23 07:31:05;;;;;;;21.67;15.75;;;;;;;-145.63;100.00;61273.97;5105712;28;20077;-67
2024/03/23 07:33:31;;;;;;;21.02;15.45;;;;;;;-145.63;100.00;61273.97;5126309;28;20043;-65
2024/03/23 07:35:57;;;;;;;21.20;15.02;;;;;;;-145.63;100.00;61273.97;5132711;28;20023;-66
2024/03/23 07:38:23;;;;;;;19.17;14.73;;;;;;;-145.63;100.00;61273.97;5129254;28;20038;-66
2024/03/23 07:40:56;;;;;;;19.15;14.35;;;;;;;-145.63;100.00;61273.97;5126454;28;20076;-65
2024/03/23 07:43:22;;;;;;;18.83;14.85;;;;;;;-145.63;100.00;61273.97;5128339;28;20075;-65
2024/03/23 07:45:52;;;;;;;17.90;13.52;;;;;;;-145.63;100.00;61273.97;5131208;28;20156;-64
2024/03/23 07:48:18;;;;;;;19.98;15.02;;;;;;;-145.63;100.00;61273.97;5132550;28;20051;-63
2024/03/23 07:50:44;;;;;;;22.02;15.60;;;;;;;-145.63;100.00;61273.97;5126855;27;20456;-67
2024/03/23 07:53:10;;;;;;;20.27;14.80;;;;;;;-145.63;100.00;61273.97;5123639;28;20055;-66
2024/03/23 07:55:35;;;;;;;20.02;15.32;;;;;;;-145.63;100.00;61273.97;5111638;28;20036;-66
2024/03/23 07:58:01;;;;;;;20.60;14.85;;;;;;;-145.63;100.00;61273.97;5127518;28;20111;-65
2024/03/23 08:00:27;;;;;;;17.58;14.23;;;;;;;-145.63;100.00;61273.97;5132215;28;20102;-64
2024/03/23 08:02:52;;;;;;;19.80;13.77;;;;;;;-145.63;100.00;61273.97;5132569;28;20528;-65
2024/03/23 08:05:18;;;;;;;17.55;13.73;;;;;;;-145.63;100.00;61273.97;5131744;28;20039;-64
2024/03/23 08:07:43;;;;;;;18.45;12.98;;;;;;;-145.63;100.00;61273.97;5115435;28;20511;-67
2024/03/23 08:10:09;;;;;;;18.60;14.20;;;;;;;-145.63;100.00;61273.97;5115785;28;20032;-66
2024/03/23 08:12:34;;;;;;;17.30;12.60;;;;;;;-145.63;100.00;61273.97;5115520;28;20035;-64
2024/03/23 08:15:00;;;;;;;15.48;12.45;;;;;;;-145.63;100.00;61273.97;5132066;27;20035;-64
2024/03/23 08:17:26;;;;;;;16.52;13.55;;;;;;;-145.63;100.00;61273.97;5118175;27;20476;-65
2024/03/23 08:19:52;;;;;;;17.20;13.82;;;;;;;-145.63;100.00;61273.97;5136097;27;20455;-66
2024/03/23 08:22:19;;;;;;;19.33;13.43;;;;;;;-145.63;100.00;61273.97;5117947;27;20027;-65
2024/03/23 08:24:44;;;;;;;20.00;13.32;;;;;;;-145.63;100.00;61273.97;5128348;27;20027;-64
2024/03/23 08:27:10;;;;;;;18.52;12.50;;;;;;;-145.63;100.00;61273.97;5134598;27;20102;-66
2024/03/23 08:29:36;;;;;;;17.92;14.25;;;;;;;-145.63;100.00;61273.97;5132779;27;20118;-65
2024/03/23 08:32:01;;;;;;;17.52;13.55;;;;;;;-145.63;100.00;61273.97;5125022;27;20023;-66
2024/03/23 08:34:27;;;;;;;14.30;11.73;;;;;;;-145.63;100.00;61273.97;5125346;27;20024;-64
2024/03/23 08:36:52;;;;;;;17.90;12.48;;;;;;;-145.63;100.00;61273.97;5135819;27;20072;-64
2024/03/23 08:39:18;;;;;;;15.30;12.75;;;;;;;-145.63;100.00;61273.97;5126572;27;20088;-65
2024/03/23 08:41:46;;;;;;;18.92;14.20;;;;;;;-145.63;100.00;61273.97;5134145;27;20081;-63
2024/03/23 08:44:11;;;;;;;18.88;13.25;;;;;;;-145.63;100.00;61273.97;5124581;27;20118;-63
2024/03/23 08:46:37;;;;;;;16.80;12.70;;;;;;;-145.63;100.00;61273.97;5127531;27;20102;-63
2024/03/23 08:49:03;;;;;;;19.25;12.77;;;;;;;-145.63;100.00;61273.97;5120566;27;20550;-64
2024/03/23 08:51:28;;;;;;;17.05;13.88;;;;;;;-145.63;100.00;61273.97;5118887;27;20035;-64
2024/03/23 08:53:54;;;;;;;16.05;12.90;;;;;;;-145.63;100.00;61273.97;5115217;28;20532;-63
2024/03/23 08:56:19;;;;;;;15.98;12.13;;;;;;;-145.63;100.00;61273.97;5115166;28;20371;-63
2024/03/23 08:58:45;;;;;;;17.63;12.60;;;;;;;-145.63;100.00;61273.97;5135507;27;20035;-66
2024/03/23 09:01:15;;;;;;;16.17;12.07;;;;;;;-145.63;100.00;61273.97;5120925;27;20055;-65
2024/03/23 09:03:41;;;;;;;15.25;12.90;;;;;;;-145.63;100.00;61273.97;5118488;27;20034;-66
2024/03/23 09:06:11;;;;;;;18.38;12.48;;;;;;;-145.63;100.00;61273.97;5121820;27;20034;-66
2024/03/23 09:08:39;;;;;;;17.20;12.63;;;;;;;-145.63;100.00;61273.97;5132504;27;20408;-67
2024/03/23 09:11:06;;;;;;;15.48;12.65;;;;;;;-145.63;100.00;61273.97;5133329;27;20659;-67
2024/03/23 09:13:36;;;;;;;15.05;12.43;;;;;;;-145.63;100.00;61273.97;5115895;27;20043;-64
2024/03/23 09:16:03;;;;;;;15.10;11.70;;;;;;;-145.63;100.00;61273.97;5129951;27;20034;-66
2024/03/23 09:18:32;;;;;;;15.80;11.70;;;;;;;-145.63;100.00;61273.97;5116829;27;20111;-65
2024/03/23 09:20:58;;;;;;;13.48;11.70;;;;;;;-145.63;100.00;61273.97;5133884;27;20023;-64
2024/03/23 09:23:23;;;;;;;17.27;11.88;;;;;;;-145.63;100.00;61273.97;5134039;27;20054;-64
2024/03/23 09:25:49;;;;;;;17.13;12.00;;;;;;;-145.63;100.00;61273.97;5119319;27;20160;-66
2024/03/23 09:28:15;;;;;;;13.57;11.75;;;;;;;-145.63;100.00;61273.97;5132524;27;20132;-64
2024/03/23 09:30:43;;;;;;;14.05;11.00;;;;;;;-145.63;100.00;61273.97;5124912;27;20031;-65
2024/03/23 09:33:11;;;;;;;13.70;11.32;;;;;;;-145.63;100.00;61273.97;5126996;27;20042;-65
2024/03/23 09:35:41;;;;;;;15.07;11.50;;;;;;;-145.63;100.00;61273.97;5116331;27;20054;-63
2024/03/23 09:38:08;;;;;;;14.85;11.88;;;;;;;-145.63;100.00;61273.97;5134080;27;20123;-64
2024/03/23 09:40:35;;;;;;;13.73;10.77;;;;;;;-145.63;100.00;61273.97;5129598;27;20395;-67
2024/03/23 09:43:01;;;;;;;13.32;11.15;;;;;;;-145.63;100.00;61273.97;5143931;27;20483;-65
2024/03/23 09:45:28;;;;;;;12.75;11.15;;;;;;;-145.63;100.00;61273.97;5145327;27;20038;-65
2024/03/23 09:47:57;;;;;;;17.67;11.90;;;;;;;-145.63;100.00;61273.97;5129913;27;20114;-67
2024/03/23 09:50:23;;;;;;;14.82;10.90;;;;;;;-145.63;100.00;61273.97;5114600;28;20031;-68
2024/03/23 09:52:49;;;;;;;13.98;11.20;;;;;;;-145.63;100.00;61273.97;5116213;27;20034;-66
2024/03/23 09:55:16;;;;;;;14.15;11.18;;;;;;;-145.63;100.00;61273.97;5118445;27;20042;-68
2024/03/23 09:57:42;;;;;;;12.55;10.80;;;;;;;-145.63;100.00;61273.97;5128255;27;20072;-70
2024/03/23 10:00:08;;;;;;;12.93;11.43;;;;;;;-145.63;100.00;61273.97;5121100;27;20118;-64
2024/03/23 10:02:35;;;;;;;14.05;10.98;;;;;;;-145.63;100.00;61273.97;5124508;27;20110;-66
2024/03/23 10:05:01;;;;;;;16.95;11.25;;;;;;;-145.63;100.00;61273.97;5130844;27;20110;-64
2024/03/23 10:07:30;;;;;;;13.02;11.52;;;;;;;-145.63;100.00;61273.97;5132609;27;20050;-68
2024/03/23 10:09:56;;;;;;;12.93;10.70;;;;;;;-145.63;100.00;61273.97;5133585;27;20027;-65
2024/03/23 10:12:23;;;;;;;13.38;10.30;;;;;;;-145.63;100.00;61273.97;5128374;27;20102;-66
2024/03/23 10:14:49;;;;;;;12.70;10.55;;;;;;;-145.63;100.00;61273.97;5129915;27;20118;-69
2024/03/23 10:17:19;;;;;;;13.82;10.55;;;;;;;-145.63;100.00;61273.97;5113200;28;20657;-65
2024/03/23 10:19:47;;;;;;;11.75;9.43;;;;;;;-145.63;100.00;61273.97;5113417;28;20437;-66
2024/03/23 10:22:21;;;;;;;13.18;10.57;;;;;;;-145.63;100.00;61273.97;5127113;27;20027;-64
2024/03/23 10:24:47;;;;;;;12.13;10.82;;;;;;;-145.63;100.00;61273.97;5124228;27;20057;-69
2024/03/23 10:27:23;;;;;;;14.48;10.52;;;;;;;-145.63;100.00;61273.97;5121377;27;20032;-68
2024/03/23 10:30:08;;;;;;;13.02;10.75;;;;;;;-145.63;100.00;61273.97;5128418;27;20039;-65
2024/03/23 10:32:34;;;;;;;14.30;10.57;;;;;;;-145.63;100.00;61273.97;5127694;27;20087;-66
2024/03/23 10:35:23;;;;;;;12.00;10.73;;;;;;;-145.63;100.00;61273.97;5126892;27;20038;-65
2024/03/23 10:37:57;;;;;;;12.27;10.80;;;;;;;-145.63;100.00;61273.97;5112913;28;20028;-65
2024/03/23 10:40:33;;;;;;;12.95;10.32;;;;;;;-145.63;100.00;61273.97;5129937;27;20027;-66
2024/03/23 10:43:17;;;;;;;13.32;10.65;;;;;;;-145.63;100.00;61273.97;5129109;27;20363;-68
2024/03/23 10:45:42;;;;;;;12.73;10.48;;;;;;;-145.63;100.00;61273.97;5126677;27;20023;-66
2024/03/23 10:48:08;;;;;;;14.98;10.63;;;;;;;-145.63;100.00;61273.97;5126815;27;20440;-69
2024/03/23 10:50:34;;;;;;;14.13;11.13;;;;;;;-145.63;100.00;61273.97;5135407;27;20471;-67
2024/03/23 10:53:00;;;;;;;12.93;11.52;;;;;;;-145.63;100.00;61273.97;5113178;28;20070;-67